createdAt,value
2018-02-10T00:00:09.013Z,-0.6
2018-02-10T00:01:19.010Z,-0.63
2018-02-10T00:02:28.959Z,-0.63
2018-02-10T00:03:39.163Z,-0.57
2018-02-10T00:04:49.106Z,-0.57
2018-02-10T00:05:59.055Z,-0.6
2018-02-10T00:07:09.009Z,-0.59
2018-02-10T00:08:18.695Z,-0.59
2018-02-10T00:09:28.127Z,-0.57
2018-02-10T00:10:37.821Z,-0.59
2018-02-10T00:11:47.847Z,-0.63
2018-02-10T00:12:57.557Z,-0.64
2018-02-10T00:14:06.993Z,-0.63
2018-02-10T00:15:16.689Z,-0.66
2018-02-10T00:16:26.639Z,-0.6
2018-02-10T00:17:36.333Z,-0.67
2018-02-10T00:18:46.283Z,-0.64
2018-02-10T00:19:55.977Z,-0.57
2018-02-10T00:21:05.915Z,-0.62
2018-02-10T00:22:15.602Z,-0.63
2018-02-10T00:23:25.543Z,-0.51
2018-02-10T00:24:35.493Z,-0.56
2018-02-10T00:25:45.449Z,-0.57
2018-02-10T00:26:55.157Z,-0.63
2018-02-10T00:28:04.864Z,-0.6
2018-02-10T00:29:14.809Z,-0.59
2018-02-10T00:30:24.758Z,-0.57
2018-02-10T00:31:34.707Z,-0.63
2018-02-10T00:32:44.664Z,-0.69
2018-02-10T00:33:54.092Z,-0.75
2018-02-10T00:35:04.036Z,-0.74
2018-02-10T00:36:13.981Z,-0.74
2018-02-10T00:37:23.674Z,-0.7
2018-02-10T00:38:33.624Z,-0.67
2018-02-10T00:39:43.575Z,-0.77
2018-02-10T00:40:53.518Z,-0.69
2018-02-10T00:42:03.463Z,-0.66
2018-02-10T00:43:13.411Z,-0.6
2018-02-10T00:44:23.098Z,-0.6
2018-02-10T00:45:32.537Z,-0.63
2018-02-10T00:46:42.217Z,-0.6
2018-02-10T00:47:51.910Z,-0.63
2018-02-10T00:49:01.849Z,-0.59
2018-02-10T00:50:11.538Z,-0.57
2018-02-10T00:51:21.503Z,-0.6
2018-02-10T00:52:31.210Z,-0.59
2018-02-10T00:53:41.160Z,-0.54
2018-02-10T00:54:51.195Z,-0.66
2018-02-10T00:56:01.138Z,-0.56
2018-02-10T00:57:11.085Z,-0.53
2018-02-10T00:58:20.794Z,-0.59
2018-02-10T00:59:30.492Z,-0.54
2018-02-10T01:00:40.458Z,-0.56
2018-02-10T01:01:49.929Z,-0.57
2018-02-10T01:02:59.885Z,-0.49
2018-02-10T01:04:09.576Z,-0.54
2018-02-10T01:05:19.527Z,-0.57
2018-02-10T01:06:29.214Z,-0.56
2018-02-10T01:07:39.409Z,-0.59
2018-02-10T01:08:49.350Z,-0.49
2018-02-10T01:09:59.361Z,-0.48
2018-02-10T01:11:09.064Z,-0.59
2018-02-10T01:12:19.018Z,-0.53
2018-02-10T01:13:28.982Z,-0.57
2018-02-10T01:14:38.410Z,-0.6
2018-02-10T01:15:48.112Z,-0.66
2018-02-10T01:16:58.058Z,-0.57
2018-02-10T01:18:08.018Z,-0.6
2018-02-10T01:19:17.956Z,-0.64
2018-02-10T01:20:27.902Z,-0.7
2018-02-10T01:21:37.839Z,-0.63
2018-02-10T01:22:47.786Z,-0.62
2018-02-10T01:23:57.738Z,-0.63
2018-02-10T01:25:07.694Z,-0.57
2018-02-10T01:26:17.633Z,-0.56
2018-02-10T01:27:27.598Z,-0.62
2018-02-10T01:28:37.542Z,-0.59
2018-02-10T01:29:47.228Z,-0.66
2018-02-10T01:30:56.914Z,-0.56
2018-02-10T01:32:06.863Z,-0.63
2018-02-10T01:33:16.873Z,-0.64
2018-02-10T01:34:26.567Z,-0.57
2018-02-10T01:35:36.253Z,-0.64
2018-02-10T01:36:45.935Z,-0.62
2018-02-10T01:37:55.620Z,-0.63
2018-02-10T01:39:05.061Z,-0.63
2018-02-10T01:40:14.761Z,-0.54
2018-02-10T01:41:24.736Z,-0.6
2018-02-10T01:42:34.427Z,-0.62
2018-02-10T01:43:44.368Z,-0.62
2018-02-10T01:44:54.303Z,-0.56
2018-02-10T01:46:04.239Z,-0.63
2018-02-10T01:47:14.176Z,-0.64
2018-02-10T01:48:24.129Z,-0.67
2018-02-10T01:49:34.078Z,-0.69
2018-02-10T01:50:44.025Z,-0.69
2018-02-10T01:51:53.962Z,-0.64
2018-02-10T01:53:03.909Z,-0.63
2018-02-10T01:54:13.597Z,-0.6
2018-02-10T01:55:23.534Z,-0.63
2018-02-10T01:56:33.216Z,-0.72
2018-02-10T01:57:43.175Z,-0.64
2018-02-10T01:58:53.114Z,-0.6
2018-02-10T02:00:03.065Z,-0.6
2018-02-10T02:01:13.004Z,-0.63
2018-02-10T02:02:22.947Z,-0.59
2018-02-10T02:03:32.894Z,-0.67
2018-02-10T02:04:42.834Z,-0.59
2018-02-10T02:05:52.514Z,-0.63
2018-02-10T02:07:02.464Z,-0.64
2018-02-10T02:08:12.464Z,-0.7
2018-02-10T02:09:22.410Z,-0.64
2018-02-10T02:10:32.379Z,-0.59
2018-02-10T02:11:41.814Z,-0.74
2018-02-10T02:12:51.757Z,-0.64
2018-02-10T02:14:01.700Z,-0.77
2018-02-10T02:15:11.640Z,-0.74
2018-02-10T02:16:21.339Z,-0.66
2018-02-10T02:17:30.789Z,-0.56
2018-02-10T02:18:40.524Z,-0.63
2018-02-10T02:19:50.463Z,-0.56
2018-02-10T02:21:00.402Z,-0.6
2018-02-10T02:22:10.351Z,-0.59
2018-02-10T02:23:20.290Z,-0.64
2018-02-10T02:24:29.722Z,-0.69
2018-02-10T02:25:39.663Z,-0.59
2018-02-10T02:26:49.671Z,-0.63
2018-02-10T02:27:59.612Z,-0.6
2018-02-10T02:29:09.561Z,-0.64
2018-02-10T02:30:19.252Z,-0.67
2018-02-10T02:31:28.936Z,-0.69
2018-02-10T02:32:38.374Z,-0.63
2018-02-10T02:33:48.334Z,-0.69
2018-02-10T02:34:58.028Z,-0.74
2018-02-10T02:36:07.977Z,-0.69
2018-02-10T02:37:18.172Z,-0.63
2018-02-10T02:38:27.859Z,-0.69
2018-02-10T02:39:37.290Z,-0.66
2018-02-10T02:40:46.980Z,-0.64
2018-02-10T02:41:56.943Z,-0.63
2018-02-10T02:43:06.640Z,-0.6
2018-02-10T02:44:16.620Z,-0.6
2018-02-10T02:45:26.596Z,-0.6
2018-02-10T02:46:36.292Z,-0.59
2018-02-10T02:47:45.462Z,-0.63
2018-02-10T02:48:55.409Z,-0.56
2018-02-10T02:50:05.346Z,-0.57
2018-02-10T02:51:15.034Z,-0.69
2018-02-10T02:52:24.974Z,-0.72
2018-02-10T02:53:34.665Z,-0.75
2018-02-10T02:54:44.627Z,-0.81
2018-02-10T02:55:54.563Z,-0.81
2018-02-10T02:57:04.537Z,-0.78
2018-02-10T02:58:14.533Z,-0.72
2018-02-10T02:59:24.475Z,-0.78
2018-02-10T03:00:34.420Z,-0.8
2018-02-10T03:01:44.179Z,-0.7
2018-02-10T03:02:54.125Z,-0.77
2018-02-10T03:04:03.804Z,-0.77
2018-02-10T03:05:13.494Z,-0.7
2018-02-10T03:06:23.449Z,-0.77
2018-02-10T03:07:33.393Z,-0.75
2018-02-10T03:08:43.088Z,-0.75
2018-02-10T03:09:53.040Z,-0.69
2018-02-10T03:11:02.978Z,-0.8
2018-02-10T03:12:12.660Z,-0.78
2018-02-10T03:13:22.394Z,-0.78
2018-02-10T03:14:32.335Z,-0.89
2018-02-10T03:15:42.271Z,-0.84
2018-02-10T03:16:51.964Z,-0.87
2018-02-10T03:18:01.905Z,-0.89
2018-02-10T03:19:11.855Z,-0.85
2018-02-10T03:20:21.658Z,-0.91
2018-02-10T03:21:31.660Z,-0.82
2018-02-10T03:22:41.355Z,-0.82
2018-02-10T03:23:51.290Z,-0.85
2018-02-10T03:25:01.225Z,-0.77
2018-02-10T03:26:11.161Z,-0.82
2018-02-10T03:27:21.105Z,-0.85
2018-02-10T03:28:30.786Z,-0.85
2018-02-10T03:29:40.731Z,-0.82
2018-02-10T03:30:50.178Z,-0.89
2018-02-10T03:32:00.125Z,-0.94
2018-02-10T03:33:09.813Z,-0.99
2018-02-10T03:34:19.498Z,-0.94
2018-02-10T03:35:29.212Z,-0.93
2018-02-10T03:36:38.646Z,-0.96
2018-02-10T03:37:48.341Z,-0.99
2018-02-10T03:38:58.288Z,-1.04
2018-02-10T03:40:07.970Z,-1.03
2018-02-10T03:41:17.910Z,-0.99
2018-02-10T03:42:27.860Z,-1.03
2018-02-10T03:43:37.808Z,-1.01
2018-02-10T03:44:47.498Z,-0.97
2018-02-10T03:45:57.179Z,-0.97
2018-02-10T03:47:06.864Z,-1.03
2018-02-10T03:48:16.555Z,-1
2018-02-10T03:49:26.247Z,-1
2018-02-10T03:50:36.240Z,-0.97
2018-02-10T03:51:45.941Z,-0.96
2018-02-10T03:52:55.625Z,-1.03
2018-02-10T03:54:05.309Z,-1.06
2018-02-10T03:55:14.988Z,-1.09
2018-02-10T03:56:24.931Z,-1.07
2018-02-10T03:57:34.876Z,-1.04
2018-02-10T03:58:44.828Z,-1.06
2018-02-10T03:59:54.761Z,-1.06
2018-02-10T04:01:04.446Z,-1.09
2018-02-10T04:02:14.443Z,-1.09
2018-02-10T04:03:24.383Z,-1.06
2018-02-10T04:04:33.817Z,-1.11
2018-02-10T04:05:43.755Z,-1.04
2018-02-10T04:06:53.703Z,-1.06
2018-02-10T04:08:03.645Z,-1.07
2018-02-10T04:09:13.336Z,-1.01
2018-02-10T04:10:23.019Z,-1.07
2018-02-10T04:11:32.963Z,-1.06
2018-02-10T04:12:42.909Z,-1.09
2018-02-10T04:13:52.853Z,-1.04
2018-02-10T04:15:02.545Z,-1.04
2018-02-10T04:16:11.991Z,-1.07
2018-02-10T04:17:21.676Z,-1.09
2018-02-10T04:18:31.618Z,-0.97
2018-02-10T04:19:41.558Z,-1.03
2018-02-10T04:20:51.493Z,-0.99
2018-02-10T04:22:01.172Z,-1
2018-02-10T04:23:11.117Z,-0.97
2018-02-10T04:24:21.059Z,-1.17
2018-02-10T04:25:30.996Z,-1.06
2018-02-10T04:26:40.938Z,-0.97
2018-02-10T04:27:50.877Z,-1.03
2018-02-10T04:29:00.558Z,-1
2018-02-10T04:30:10.246Z,-0.94
2018-02-10T04:31:19.920Z,-1.01
2018-02-10T04:32:29.850Z,-1
2018-02-10T04:33:39.525Z,-0.97
2018-02-10T04:34:49.217Z,-0.99
2018-02-10T04:35:58.915Z,-1.06
2018-02-10T04:37:08.594Z,-1.01
2018-02-10T04:38:18.276Z,-1.03
2018-02-10T04:39:28.211Z,-1
2018-02-10T04:40:38.158Z,-0.99
2018-02-10T04:41:47.586Z,-1.01
2018-02-10T04:42:57.530Z,-1
2018-02-10T04:44:07.483Z,-1.03
2018-02-10T04:45:17.184Z,-0.93
2018-02-10T04:46:27.123Z,-0.93
2018-02-10T04:47:37.081Z,-0.93
2018-02-10T04:48:47.022Z,-0.93
2018-02-10T04:49:56.954Z,-0.89
2018-02-10T04:51:06.637Z,-0.91
2018-02-10T04:52:16.575Z,-0.91
2018-02-10T04:53:26.532Z,-0.87
2018-02-10T04:54:36.223Z,-0.93
2018-02-10T04:55:45.906Z,-0.85
2018-02-10T04:56:55.845Z,-0.94
2018-02-10T04:58:05.781Z,-0.91
2018-02-10T04:59:15.469Z,-0.85
2018-02-10T05:00:25.414Z,-0.91
2018-02-10T05:01:35.097Z,-0.91
2018-02-10T05:02:44.782Z,-0.82
2018-02-10T05:03:54.729Z,-0.85
2018-02-10T05:05:04.676Z,-0.87
2018-02-10T05:06:14.626Z,-0.85
2018-02-10T05:07:24.057Z,-0.93
2018-02-10T05:08:34.012Z,-0.8
2018-02-10T05:09:43.958Z,-0.85
2018-02-10T05:10:53.921Z,-0.82
2018-02-10T05:12:03.857Z,-0.84
2018-02-10T05:13:13.783Z,-0.89
2018-02-10T05:14:23.777Z,-0.94
2018-02-10T05:15:33.716Z,-0.87
2018-02-10T05:16:43.413Z,-0.93
2018-02-10T05:17:53.100Z,-0.93
2018-02-10T05:19:03.064Z,-0.96
2018-02-10T05:20:12.996Z,-0.93
2018-02-10T05:21:22.727Z,-0.87
2018-02-10T05:22:32.670Z,-0.96
2018-02-10T05:23:42.605Z,-1.03
2018-02-10T05:24:52.544Z,-1.01
2018-02-10T05:26:02.490Z,-0.94
2018-02-10T05:27:12.179Z,-1
2018-02-10T05:28:21.862Z,-0.93
2018-02-10T05:29:31.557Z,-0.97
2018-02-10T05:30:41.504Z,-0.97
2018-02-10T05:31:51.450Z,-0.96
2018-02-10T05:33:01.136Z,-0.99
2018-02-10T05:34:10.821Z,-1.04
2018-02-10T05:35:20.760Z,-1.03
2018-02-10T05:36:30.444Z,-1
2018-02-10T05:37:40.600Z,-0.96
2018-02-10T05:38:50.566Z,-0.97
2018-02-10T05:40:00.511Z,-1.03
2018-02-10T05:41:10.203Z,-1.01
2018-02-10T05:42:20.149Z,-1.03
2018-02-10T05:43:30.089Z,-0.89
2018-02-10T05:44:40.031Z,-0.91
2018-02-10T05:45:49.712Z,-0.85
2018-02-10T05:46:59.708Z,-0.85
2018-02-10T05:48:09.659Z,-0.82
2018-02-10T05:49:19.604Z,-0.85
2018-02-10T05:50:29.561Z,-0.89
2018-02-10T05:51:39.513Z,-0.99
2018-02-10T05:52:49.483Z,-1.03
2018-02-10T05:53:59.422Z,-0.99
2018-02-10T05:55:09.100Z,-1.01
2018-02-10T05:56:18.782Z,-0.93
2018-02-10T05:57:28.729Z,-0.96
2018-02-10T05:58:38.738Z,-0.93
2018-02-10T05:59:48.432Z,-1
2018-02-10T06:00:58.115Z,-0.91
2018-02-10T06:02:08.059Z,-0.89
2018-02-10T06:03:17.997Z,-0.99
2018-02-10T06:04:27.940Z,-0.8
2018-02-10T06:05:37.878Z,-0.85
2018-02-10T06:06:47.814Z,-0.75
2018-02-10T06:07:57.240Z,-0.8
2018-02-10T06:09:07.185Z,-0.82
2018-02-10T06:10:17.127Z,-0.78
2018-02-10T06:11:26.871Z,-0.8
2018-02-10T06:12:36.840Z,-0.78
2018-02-10T06:13:46.784Z,-0.72
2018-02-10T06:14:56.511Z,-0.69
2018-02-10T06:16:06.187Z,-0.69
2018-02-10T06:17:15.932Z,-0.6
2018-02-10T06:18:25.874Z,-0.64
2018-02-10T06:19:35.812Z,-0.69
2018-02-10T06:20:45.813Z,-0.74
2018-02-10T06:21:55.501Z,-0.72
2018-02-10T06:23:05.451Z,-0.72
2018-02-10T06:24:15.398Z,-0.69
2018-02-10T06:25:25.353Z,-0.64
2018-02-10T06:26:35.328Z,-0.81
2018-02-10T06:27:45.019Z,-0.8
2018-02-10T06:28:55.022Z,-0.81
2018-02-10T06:30:04.979Z,-0.84
2018-02-10T06:31:14.922Z,-0.72
2018-02-10T06:32:24.857Z,-0.81
2018-02-10T06:33:34.805Z,-0.82
2018-02-10T06:34:44.495Z,-0.77
2018-02-10T06:35:54.446Z,-0.74
2018-02-10T06:37:04.411Z,-0.8
2018-02-10T06:38:14.372Z,-0.81
2018-02-10T06:39:24.074Z,-0.75
2018-02-10T06:40:34.025Z,-0.69
2018-02-10T06:41:43.976Z,-0.75
2018-02-10T06:42:53.912Z,-0.67
2018-02-10T06:44:03.602Z,-0.63
2018-02-10T06:45:13.552Z,-0.66
2018-02-10T06:46:23.499Z,-0.81
2018-02-10T06:47:33.441Z,-0.69
2018-02-10T06:48:42.868Z,-0.77
2018-02-10T06:49:52.826Z,-0.81
2018-02-10T06:51:02.519Z,-0.78
2018-02-10T06:52:12.464Z,-0.78
2018-02-10T06:53:22.396Z,-0.77
2018-02-10T06:54:32.330Z,-0.77
2018-02-10T06:55:42.012Z,-0.81
2018-02-10T06:56:51.691Z,-0.82
2018-02-10T06:58:01.632Z,-0.81
2018-02-10T06:59:11.576Z,-0.78
2018-02-10T07:00:21.527Z,-0.78
2018-02-10T07:01:31.470Z,-0.77
2018-02-10T07:02:41.429Z,-0.75
2018-02-10T07:03:51.110Z,-0.77
2018-02-10T07:05:01.058Z,-0.84
2018-02-10T07:06:11.001Z,-0.78
2018-02-10T07:07:20.430Z,-0.82
2018-02-10T07:08:30.383Z,-0.74
2018-02-10T07:09:40.318Z,-0.81
2018-02-10T07:10:50.019Z,-0.78
2018-02-10T07:11:59.976Z,-0.75
2018-02-10T07:13:09.661Z,-0.69
2018-02-10T07:14:19.615Z,-0.66
2018-02-10T07:15:29.563Z,-0.69
2018-02-10T07:16:39.500Z,-0.69
2018-02-10T07:17:49.439Z,-0.66
2018-02-10T07:18:58.904Z,-0.72
2018-02-10T07:20:08.616Z,-0.7
2018-02-10T07:21:18.314Z,-0.77
2018-02-10T07:22:28.252Z,-0.67
2018-02-10T07:23:38.195Z,-0.75
2018-02-10T07:24:48.144Z,-0.75
2018-02-10T07:25:58.093Z,-0.77
2018-02-10T07:27:07.777Z,-0.78
2018-02-10T07:28:17.462Z,-0.8
2018-02-10T07:29:27.410Z,-0.8
2018-02-10T07:30:37.346Z,-0.82
2018-02-10T07:31:47.034Z,-0.82
2018-02-10T07:32:56.982Z,-0.72
2018-02-10T07:34:06.942Z,-0.75
2018-02-10T07:35:16.888Z,-0.77
2018-02-10T07:36:26.575Z,-0.8
2018-02-10T07:37:36.295Z,-0.74
2018-02-10T07:38:46.244Z,-0.81
2018-02-10T07:39:56.181Z,-0.77
2018-02-10T07:41:06.122Z,-0.78
2018-02-10T07:42:16.061Z,-0.75
2018-02-10T07:43:26.004Z,-0.74
2018-02-10T07:44:35.956Z,-0.8
2018-02-10T07:45:45.896Z,-0.81
2018-02-10T07:46:55.840Z,-0.69
2018-02-10T07:48:05.010Z,-0.84
2018-02-10T07:49:14.947Z,-0.77
2018-02-10T07:50:24.637Z,-0.81
2018-02-10T07:51:33.551Z,-0.78
2018-02-10T07:52:43.252Z,-0.77
2018-02-10T07:53:52.943Z,-0.72
2018-02-10T07:55:02.903Z,-0.78
2018-02-10T07:56:12.589Z,-0.69
2018-02-10T07:57:22.533Z,-0.69
2018-02-10T07:58:32.247Z,-0.7
2018-02-10T07:59:41.926Z,-0.74
2018-02-10T08:00:51.617Z,-0.74
2018-02-10T08:02:01.298Z,-0.77
2018-02-10T08:03:11.264Z,-0.72
2018-02-10T08:04:20.704Z,-0.64
2018-02-10T08:05:30.647Z,-0.6
2018-02-10T08:06:40.597Z,-0.64
2018-02-10T08:07:50.551Z,-0.63
2018-02-10T08:09:00.269Z,-0.6
2018-02-10T08:10:10.208Z,-0.6
2018-02-10T08:11:20.142Z,-0.62
2018-02-10T08:12:29.826Z,-0.74
2018-02-10T08:13:39.526Z,-0.69
2018-02-10T08:14:49.459Z,-0.6
2018-02-10T08:15:59.408Z,-0.56
2018-02-10T08:17:09.095Z,-0.6
2018-02-10T08:18:19.061Z,-0.7
2018-02-10T08:19:28.760Z,-0.59
2018-02-10T08:20:38.722Z,-0.6
2018-02-10T08:21:48.662Z,-0.66
2018-02-10T08:22:58.600Z,-0.64
2018-02-10T08:24:08.546Z,-0.6
2018-02-10T08:25:18.240Z,-0.57
2018-02-10T08:26:28.231Z,-0.53
2018-02-10T08:27:38.173Z,-0.57
2018-02-10T08:28:48.128Z,-0.46
2018-02-10T08:29:58.076Z,-0.56
2018-02-10T08:31:08.020Z,-0.53
2018-02-10T08:32:17.972Z,-0.56
2018-02-10T08:33:27.661Z,-0.56
2018-02-10T08:34:37.606Z,-0.45
2018-02-10T08:35:47.294Z,-0.46
2018-02-10T08:36:57.233Z,-0.51
2018-02-10T08:38:06.661Z,-0.45
2018-02-10T08:39:16.608Z,-0.42
2018-02-10T08:40:26.307Z,-0.41
2018-02-10T08:41:36.263Z,-0.46
2018-02-10T08:42:45.700Z,-0.38
2018-02-10T08:43:55.393Z,-0.35
2018-02-10T08:45:05.349Z,-0.38
2018-02-10T08:46:15.309Z,-0.41
2018-02-10T08:47:24.994Z,-0.38
2018-02-10T08:48:34.942Z,-0.3
2018-02-10T08:49:44.637Z,-0.31
2018-02-10T08:50:54.330Z,-0.38
2018-02-10T08:52:04.267Z,-0.31
2018-02-10T08:53:14.206Z,-0.23
2018-02-10T08:54:24.162Z,-0.17
2018-02-10T08:55:33.847Z,-0.21
2018-02-10T08:56:43.787Z,-0.17
2018-02-10T08:57:53.728Z,-0.24
2018-02-10T08:59:03.677Z,-0.17
2018-02-10T09:00:13.633Z,-0.21
2018-02-10T09:01:23.582Z,-0.21
2018-02-10T09:02:33.525Z,-0.13
2018-02-10T09:03:43.221Z,-0.17
2018-02-10T09:04:53.186Z,-0.1
2018-02-10T09:06:03.128Z,-0.13
2018-02-10T09:07:13.082Z,-0.18
2018-02-10T09:08:23.025Z,-0.17
2018-02-10T09:09:32.716Z,-0.23
2018-02-10T09:10:42.672Z,-0.15
2018-02-10T09:11:52.608Z,-0.12
2018-02-10T09:13:02.568Z,-0.23
2018-02-10T09:14:12.525Z,-0.15
2018-02-10T09:15:22.470Z,-0.13
2018-02-10T09:16:32.412Z,-0.12
2018-02-10T09:17:42.110Z,-0.13
2018-02-10T09:18:52.056Z,-0.18
2018-02-10T09:20:01.742Z,-0.07
2018-02-10T09:21:11.175Z,-0.03
2018-02-10T09:22:20.861Z,-0.06
2018-02-10T09:23:30.806Z,-0.07
2018-02-10T09:24:40.500Z,-0.13
2018-02-10T09:25:50.456Z,-0.15
2018-02-10T09:27:00.225Z,-0.12
2018-02-10T09:28:10.179Z,-0.03
2018-02-10T09:29:20.178Z,-0.03
2018-02-10T09:30:29.867Z,-0.03
2018-02-10T09:31:39.569Z,-0.07
2018-02-10T09:32:49.508Z,-0.03
2018-02-10T09:33:59.202Z,0.01
2018-02-10T09:35:09.156Z,0.09
2018-02-10T09:36:18.847Z,0.09
2018-02-10T09:37:28.795Z,0.02
2018-02-10T09:38:38.745Z,0.01
2018-02-10T09:39:48.438Z,0
2018-02-10T09:40:58.162Z,0.06
2018-02-10T09:42:08.105Z,0.06
2018-02-10T09:43:18.099Z,0.06
2018-02-10T09:44:27.809Z,-0.05
2018-02-10T09:45:37.519Z,0.09
2018-02-10T09:46:47.475Z,0.05
2018-02-10T09:47:57.163Z,0.15
2018-02-10T09:49:06.850Z,0.16
2018-02-10T09:50:16.530Z,0.16
2018-02-10T09:51:26.485Z,0.13
2018-02-10T09:52:36.178Z,0.12
2018-02-10T09:53:46.208Z,0.15
2018-02-10T09:54:56.152Z,0.18
2018-02-10T09:56:05.849Z,0.16
2018-02-10T09:57:15.538Z,0.23
2018-02-10T09:58:25.225Z,0.16
2018-02-10T09:59:35.163Z,0.19
2018-02-10T10:00:45.119Z,0.27
2018-02-10T10:01:55.072Z,0.34
2018-02-10T10:03:04.751Z,0.29
2018-02-10T10:04:14.712Z,0.33
2018-02-10T10:05:24.665Z,0.45
2018-02-10T10:06:34.597Z,0.45
2018-02-10T10:07:44.295Z,0.51
2018-02-10T10:08:54.246Z,0.55
2018-02-10T10:10:04.176Z,0.59
2018-02-10T10:11:14.147Z,0.64
2018-02-10T10:12:24.098Z,0.66
2018-02-10T10:13:34.042Z,0.67
2018-02-10T10:14:43.729Z,0.7
2018-02-10T10:15:53.415Z,0.77
2018-02-10T10:17:03.096Z,0.67
2018-02-10T10:18:12.799Z,0.77
2018-02-10T10:19:22.747Z,0.82
2018-02-10T10:20:32.713Z,1
2018-02-10T10:21:42.661Z,0.95
2018-02-10T10:22:52.617Z,1.06
2018-02-10T10:24:02.560Z,1.06
2018-02-10T10:25:12.267Z,1.06
2018-02-10T10:26:21.965Z,0.95
2018-02-10T10:27:31.914Z,1
2018-02-10T10:28:41.871Z,0.82
2018-02-10T10:29:51.814Z,0.81
2018-02-10T10:31:01.758Z,0.68
2018-02-10T10:32:11.709Z,0.77
2018-02-10T10:33:21.654Z,0.77
2018-02-10T10:34:31.360Z,0.73
2018-02-10T10:35:41.068Z,0.73
2018-02-10T10:36:50.770Z,0.86
2018-02-10T10:38:00.725Z,0.78
2018-02-10T10:39:10.416Z,0.84
2018-02-10T10:40:19.863Z,0.77
2018-02-10T10:41:29.844Z,0.68
2018-02-10T10:42:39.535Z,0.71
2018-02-10T10:43:49.576Z,0.73
2018-02-10T10:44:59.544Z,0.73
2018-02-10T10:46:09.493Z,0.81
2018-02-10T10:47:19.261Z,0.82
2018-02-10T10:48:29.228Z,0.85
2018-02-10T10:49:39.197Z,0.88
2018-02-10T10:50:48.897Z,0.89
2018-02-10T10:51:58.587Z,1.02
2018-02-10T10:53:08.602Z,1.04
2018-02-10T10:54:18.539Z,0.95
2018-02-10T10:55:28.237Z,1
2018-02-10T10:56:37.917Z,1.02
2018-02-10T10:57:47.626Z,0.94
2018-02-10T10:58:57.327Z,1.03
2018-02-10T11:00:07.277Z,0.99
2018-02-10T11:01:17.222Z,1.02
2018-02-10T11:02:27.191Z,1.07
2018-02-10T11:03:37.145Z,1.04
2018-02-10T11:04:47.093Z,1.03
2018-02-10T11:05:57.028Z,1.09
2018-02-10T11:07:06.976Z,1.16
2018-02-10T11:08:16.928Z,1.04
2018-02-10T11:09:26.876Z,1.09
2018-02-10T11:10:36.815Z,1.16
2018-02-10T11:11:46.766Z,1.07
2018-02-10T11:12:56.712Z,1.14
2018-02-10T11:14:06.415Z,1.14
2018-02-10T11:15:16.371Z,1.13
2018-02-10T11:16:26.329Z,1.13
2018-02-10T11:17:36.274Z,1.24
2018-02-10T11:18:46.286Z,1.3
2018-02-10T11:19:56.235Z,1.27
2018-02-10T11:21:06.182Z,1.27
2018-02-10T11:22:16.199Z,1.24
2018-02-10T11:23:26.179Z,1.31
2018-02-10T11:24:35.866Z,1.28
2018-02-10T11:25:45.813Z,1.34
2018-02-10T11:26:55.254Z,1.34
2018-02-10T11:28:04.953Z,1.39
2018-02-10T11:29:14.920Z,1.42
2018-02-10T11:30:24.613Z,1.46
2018-02-10T11:31:34.592Z,1.34
2018-02-10T11:32:44.810Z,1.43
2018-02-10T11:33:54.555Z,1.45
2018-02-10T11:35:04.248Z,1.46
2018-02-10T11:36:14.213Z,1.3
2018-02-10T11:37:24.164Z,1.45
2018-02-10T11:38:33.911Z,1.5
2018-02-10T11:39:43.849Z,1.52
2018-02-10T11:40:53.554Z,1.49
2018-02-10T11:42:02.995Z,1.6
2018-02-10T11:43:12.939Z,1.63
2018-02-10T11:44:22.669Z,1.76
2018-02-10T11:45:32.361Z,1.81
2018-02-10T11:46:42.051Z,1.82
2018-02-10T11:47:52.000Z,1.98
2018-02-10T11:49:01.944Z,2.14
2018-02-10T11:50:11.994Z,2.05
2018-02-10T11:51:21.943Z,2.15
2018-02-10T11:52:31.898Z,2.22
2018-02-10T11:53:41.084Z,2.26
2018-02-10T11:54:51.116Z,2.22
2018-02-10T11:56:01.112Z,2.25
2018-02-10T11:57:10.794Z,2.26
2018-02-10T11:58:20.742Z,2.33
2018-02-10T11:59:30.861Z,2.26
2018-02-10T12:00:40.671Z,2.32
2018-02-10T12:01:50.107Z,2.14
2018-02-10T12:02:59.797Z,2.18
2018-02-10T12:04:09.751Z,2.22
2018-02-10T12:05:19.445Z,2.25
2018-02-10T12:06:29.140Z,2.23
2018-02-10T12:07:38.330Z,2.28
2018-02-10T12:08:48.278Z,2.21
2018-02-10T12:09:57.991Z,2.26
2018-02-10T12:11:07.962Z,2.25
2018-02-10T12:12:17.666Z,2.26
2018-02-10T12:13:27.106Z,2.34
2018-02-10T12:14:36.906Z,2.26
2018-02-10T12:15:46.864Z,2.32
2018-02-10T12:16:56.565Z,2.3
2018-02-10T12:18:06.540Z,2.28
2018-02-10T12:19:16.482Z,2.33
2018-02-10T12:20:26.188Z,2.3
2018-02-10T12:21:35.877Z,2.25
2018-02-10T12:22:45.314Z,2.25
2018-02-10T12:23:55.289Z,2.36
2018-02-10T12:25:05.263Z,2.3
2018-02-10T12:26:15.243Z,2.39
2018-02-10T12:27:25.212Z,2.41
2018-02-10T12:28:35.154Z,2.39
2018-02-10T12:29:44.848Z,2.36
2018-02-10T12:30:54.807Z,2.36
2018-02-10T12:32:04.903Z,2.43
2018-02-10T12:33:14.867Z,2.46
2018-02-10T12:34:24.560Z,2.5
2018-02-10T12:35:34.252Z,2.51
2018-02-10T12:36:44.192Z,2.37
2018-02-10T12:37:53.361Z,2.39
2018-02-10T12:39:03.313Z,2.39
2018-02-10T12:40:13.296Z,2.4
2018-02-10T12:41:23.237Z,2.43
2018-02-10T12:42:32.671Z,2.52
2018-02-10T12:43:42.366Z,2.46
2018-02-10T12:44:52.317Z,2.57
2018-02-10T12:46:02.324Z,2.61
2018-02-10T12:47:12.279Z,2.62
2018-02-10T12:48:21.980Z,2.59
2018-02-10T12:49:31.931Z,2.75
2018-02-10T12:50:41.644Z,2.62
2018-02-10T12:51:51.598Z,2.73
2018-02-10T12:53:01.550Z,2.76
2018-02-10T12:54:11.248Z,2.79
2018-02-10T12:55:21.213Z,2.7
2018-02-10T12:56:31.240Z,2.72
2018-02-10T12:57:41.203Z,2.7
2018-02-10T12:58:51.160Z,2.61
2018-02-10T13:00:00.884Z,2.57
2018-02-10T13:01:10.591Z,2.62
2018-02-10T13:02:20.581Z,2.59
2018-02-10T13:03:30.520Z,2.58
2018-02-10T13:04:40.475Z,2.59
2018-02-10T13:05:50.174Z,2.61
2018-02-10T13:06:59.868Z,2.68
2018-02-10T13:08:09.835Z,2.85
2018-02-10T13:09:19.549Z,2.95
2018-02-10T13:10:29.504Z,3.12
2018-02-10T13:11:39.452Z,3.29
2018-02-10T13:12:49.147Z,3.52
2018-02-10T13:13:59.105Z,3.68
2018-02-10T13:15:08.807Z,3.91
2018-02-10T13:16:18.756Z,3.96
2018-02-10T13:17:28.713Z,4.04
2018-02-10T13:18:38.685Z,4.03
2018-02-10T13:19:48.653Z,4.24
2018-02-10T13:20:58.383Z,4.31
2018-02-10T13:22:08.344Z,4.1
2018-02-10T13:23:18.291Z,3.94
2018-02-10T13:24:28.002Z,3.94
2018-02-10T13:25:37.691Z,4.2
2018-02-10T13:26:47.383Z,4.22
2018-02-10T13:27:57.326Z,4.27
2018-02-10T13:29:07.294Z,4.21
2018-02-10T13:30:17.257Z,4.18
2018-02-10T13:31:27.251Z,4.25
2018-02-10T13:32:36.949Z,4.2
2018-02-10T13:33:46.913Z,3.86
2018-02-10T13:34:56.876Z,3.56
2018-02-10T13:36:06.845Z,3.33
2018-02-10T13:37:16.546Z,3.3
2018-02-10T13:38:26.506Z,3.22
2018-02-10T13:39:36.447Z,3.31
2018-02-10T13:40:46.447Z,3.43
2018-02-10T13:41:56.164Z,3.49
2018-02-10T13:43:06.236Z,3.63
2018-02-10T13:44:16.191Z,3.73
2018-02-10T13:45:26.141Z,3.61
2018-02-10T13:46:36.090Z,3.63
2018-02-10T13:47:45.806Z,3.53
2018-02-10T13:48:55.767Z,3.53
2018-02-10T13:50:05.745Z,3.49
2018-02-10T13:51:15.703Z,3.49
2018-02-10T13:52:25.749Z,3.45
2018-02-10T13:53:35.707Z,3.52
2018-02-10T13:54:45.665Z,3.63
2018-02-10T13:55:55.652Z,3.67
2018-02-10T13:57:05.364Z,3.73
2018-02-10T13:58:15.088Z,3.67
2018-02-10T13:59:24.779Z,3.92
2018-02-10T14:00:34.754Z,3.63
2018-02-10T14:01:44.703Z,3.73
2018-02-10T14:02:54.664Z,3.5
2018-02-10T14:04:04.620Z,3.52
2018-02-10T14:05:14.354Z,3.5
2018-02-10T14:06:24.325Z,3.55
2018-02-10T14:07:34.023Z,3.46
2018-02-10T14:08:43.715Z,3.33
2018-02-10T14:09:53.422Z,3.13
2018-02-10T14:11:02.609Z,3.05
2018-02-10T14:12:12.316Z,2.94
2018-02-10T14:13:22.276Z,2.94
2018-02-10T14:14:32.013Z,3.03
2018-02-10T14:15:41.960Z,3.06
2018-02-10T14:16:51.932Z,3
2018-02-10T14:18:01.882Z,3.03
2018-02-10T14:19:11.568Z,2.97
2018-02-10T14:20:21.542Z,3.05
2018-02-10T14:21:31.516Z,3.12
2018-02-10T14:22:41.481Z,3.06
2018-02-10T14:23:51.431Z,3.01
2018-02-10T14:25:01.381Z,3.03
2018-02-10T14:26:11.338Z,2.93
2018-02-10T14:27:21.304Z,2.98
2018-02-10T14:28:31.262Z,3
2018-02-10T14:29:41.215Z,3.01
2018-02-10T14:30:51.168Z,3.05
2018-02-10T14:32:01.136Z,2.97
2018-02-10T14:33:10.834Z,2.97
2018-02-10T14:34:20.794Z,2.97
2018-02-10T14:35:30.486Z,2.94
2018-02-10T14:36:40.439Z,2.75
2018-02-10T14:37:49.883Z,2.83
2018-02-10T14:38:59.842Z,2.8
2018-02-10T14:40:09.560Z,2.73
2018-02-10T14:41:19.571Z,2.77
2018-02-10T14:42:29.261Z,2.73
2018-02-10T14:43:38.977Z,2.72
2018-02-10T14:44:48.927Z,2.7
2018-02-10T14:45:58.895Z,2.79
2018-02-10T14:47:08.593Z,2.8
2018-02-10T14:48:18.276Z,2.7
2018-02-10T14:49:27.984Z,2.7
2018-02-10T14:50:37.925Z,2.72
2018-02-10T14:51:47.871Z,2.68
2018-02-10T14:52:57.837Z,2.76
2018-02-10T14:54:07.534Z,2.58
2018-02-10T14:55:17.247Z,2.59
2018-02-10T14:56:26.953Z,2.61
2018-02-10T14:57:36.895Z,2.55
2018-02-10T14:58:46.385Z,2.57
2018-02-10T14:59:56.103Z,2.54
2018-02-10T15:01:05.799Z,2.58
2018-02-10T15:02:15.756Z,2.58
2018-02-10T15:03:25.709Z,2.59
2018-02-10T15:04:35.664Z,2.5
2018-02-10T15:05:45.149Z,2.62
2018-02-10T15:06:54.844Z,2.51
2018-02-10T15:08:04.552Z,2.52
2018-02-10T15:09:14.298Z,2.59
2018-02-10T15:10:24.259Z,2.61
2018-02-10T15:11:33.961Z,2.54
2018-02-10T15:12:43.913Z,2.58
2018-02-10T15:13:53.867Z,2.57
2018-02-10T15:15:03.546Z,2.61